createdAt,value
2018-12-23T00:00:11.943Z,2.80
2018-12-23T00:02:40.271Z,2.63
2018-12-23T00:05:11.620Z,2.60
2018-12-23T00:07:38.781Z,2.63
2018-12-23T00:10:07.450Z,2.97
2018-12-23T00:12:35.750Z,2.60
2018-12-23T00:15:04.965Z,2.70
2018-12-23T00:17:33.438Z,2.27
2018-12-23T00:20:01.554Z,2.37
2018-12-23T00:22:29.671Z,2.60
2018-12-23T00:24:57.911Z,2.77
2018-12-23T00:27:26.200Z,2.30
2018-12-23T00:29:54.696Z,2.70
2018-12-23T00:32:23.016Z,2.03
2018-12-23T00:34:51.469Z,1.93
2018-12-23T00:37:19.686Z,2.30
2018-12-23T00:39:48.048Z,2.87
2018-12-23T00:42:17.339Z,4.63
2018-12-23T00:44:45.652Z,2.27
2018-12-23T00:47:13.890Z,2.60
2018-12-23T00:49:44.277Z,3.10
2018-12-23T00:52:12.614Z,2.13
2018-12-23T00:54:40.822Z,2.37
2018-12-23T00:57:09.399Z,2.23
2018-12-23T00:59:38.298Z,2.30
2018-12-23T01:02:06.435Z,2.13
2018-12-23T01:04:34.563Z,2.00
2018-12-23T01:07:02.761Z,1.63
2018-12-23T01:09:31.107Z,2.47
2018-12-23T01:11:59.371Z,2.53
2018-12-23T01:14:28.002Z,2.47
2018-12-23T01:16:56.353Z,3.20
2018-12-23T01:19:24.575Z,3.37
2018-12-23T01:21:53.374Z,2.20
2018-12-23T01:24:21.852Z,2.27
2018-12-23T01:26:50.044Z,2.60
2018-12-23T01:29:18.221Z,3.03
2018-12-23T01:31:46.812Z,1.90
2018-12-23T01:34:15.351Z,2.17
2018-12-23T01:36:43.857Z,2.70
2018-12-23T01:39:11.985Z,2.27
2018-12-23T01:41:40.650Z,2.77
2018-12-23T01:44:08.776Z,2.20
2018-12-23T01:46:37.274Z,2.60
2018-12-23T01:49:05.646Z,2.50
2018-12-23T01:51:33.939Z,1.77
2018-12-23T01:54:02.552Z,2.43
2018-12-23T01:56:31.098Z,2.37
2018-12-23T01:58:59.298Z,2.50
2018-12-23T02:01:27.627Z,2.60
2018-12-23T02:03:55.818Z,3.30
2018-12-23T02:06:24.055Z,3.07
2018-12-23T02:08:52.156Z,2.80
2018-12-23T02:11:20.458Z,2.50
2018-12-23T02:13:48.720Z,2.30
2018-12-23T02:16:16.975Z,2.80
2018-12-23T02:18:46.942Z,3.13
2018-12-23T02:21:15.461Z,2.80
2018-12-23T02:23:43.672Z,3.20
2018-12-23T02:26:11.903Z,3.00
2018-12-23T02:28:40.047Z,2.73
2018-12-23T02:31:08.347Z,3.03
2018-12-23T02:33:36.767Z,3.77
2018-12-23T02:36:05.395Z,3.40
2018-12-23T02:38:33.724Z,3.80
2018-12-23T02:41:02.025Z,3.33
2018-12-23T02:43:30.699Z,3.70
2018-12-23T02:45:59.061Z,3.30
2018-12-23T02:48:27.272Z,2.90
2018-12-23T02:50:55.628Z,2.83
2018-12-23T02:53:24.988Z,3.50
2018-12-23T02:55:53.182Z,3.37
2018-12-23T02:58:21.650Z,3.33
2018-12-23T03:00:50.239Z,3.50
2018-12-23T03:03:18.582Z,3.03
2018-12-23T03:05:46.844Z,2.70
2018-12-23T03:08:15.346Z,3.07
2018-12-23T03:10:43.916Z,2.63
2018-12-23T03:13:12.125Z,2.90
2018-12-23T03:15:41.542Z,2.53
2018-12-23T03:18:09.734Z,2.53
2018-12-23T03:20:37.828Z,3.60
2018-12-23T03:23:06.086Z,3.97
2018-12-23T03:25:34.423Z,3.27
2018-12-23T03:28:02.644Z,3.43
2018-12-23T03:30:31.037Z,3.93
2018-12-23T03:32:59.207Z,4.20
2018-12-23T03:35:27.655Z,4.05
2018-12-23T03:37:55.920Z,3.30
2018-12-23T03:40:24.321Z,5.57
2018-12-23T03:42:52.967Z,3.70
2018-12-23T03:45:21.319Z,3.50
2018-12-23T03:47:49.447Z,3.60
2018-12-23T03:50:17.781Z,4.07
2018-12-23T03:52:45.958Z,4.30
2018-12-23T03:55:14.184Z,4.10
2018-12-23T03:57:42.661Z,4.40
2018-12-23T04:00:11.003Z,4.67
2018-12-23T04:02:39.262Z,4.37
2018-12-23T04:05:07.515Z,4.77
2018-12-23T04:07:35.842Z,4.07
2018-12-23T04:10:04.650Z,3.27
2018-12-23T04:12:33.625Z,3.30
2018-12-23T04:15:02.010Z,3.63
2018-12-23T04:17:30.336Z,3.97
2018-12-23T04:19:58.763Z,3.80
2018-12-23T04:22:27.130Z,4.07
2018-12-23T04:24:55.567Z,4.50
2018-12-23T04:27:23.701Z,3.73
2018-12-23T04:29:51.910Z,4.43
2018-12-23T04:32:20.237Z,4.07
2018-12-23T04:34:48.965Z,4.30
2018-12-23T04:37:17.287Z,4.10
2018-12-23T04:39:45.888Z,3.33
2018-12-23T04:42:14.187Z,3.70
2018-12-23T04:44:42.425Z,4.03
2018-12-23T04:47:10.905Z,3.50
2018-12-23T04:49:39.134Z,3.87
2018-12-23T04:52:07.352Z,4.03
2018-12-23T04:54:35.874Z,4.75
2018-12-23T04:57:04.354Z,4.20
2018-12-23T04:59:33.139Z,4.00
2018-12-23T05:02:01.485Z,3.73
2018-12-23T05:04:30.348Z,3.20
2018-12-23T05:06:58.847Z,3.80
2018-12-23T05:09:27.842Z,3.90
2018-12-23T05:11:56.358Z,3.50
2018-12-23T05:14:24.689Z,4.20
2018-12-23T05:16:53.087Z,4.97
2018-12-23T05:19:21.336Z,3.65
2018-12-23T05:21:49.625Z,3.83
2018-12-23T05:24:18.411Z,3.63
2018-12-23T05:26:46.582Z,3.97
2018-12-23T05:29:15.058Z,3.00
2018-12-23T05:31:43.155Z,3.00
2018-12-23T05:34:12.030Z,3.50
2018-12-23T05:36:40.584Z,4.27
2018-12-23T05:39:10.318Z,3.83
2018-12-23T05:41:38.905Z,3.30
2018-12-23T05:44:07.134Z,3.93
2018-12-23T05:46:35.421Z,3.73
2018-12-23T05:49:03.626Z,4.07
2018-12-23T05:51:31.941Z,4.40
2018-12-23T05:54:00.239Z,3.80
2018-12-23T05:56:29.139Z,3.03
2018-12-23T05:58:57.405Z,3.60
2018-12-23T06:01:25.854Z,2.83
2018-12-23T06:03:53.963Z,4.07
2018-12-23T06:06:22.575Z,3.70
2018-12-23T06:08:51.284Z,3.77
2018-12-23T06:11:19.624Z,3.63
2018-12-23T06:13:47.810Z,3.40
2018-12-23T06:16:16.060Z,4.70
2018-12-23T06:18:44.271Z,3.10
2018-12-23T06:21:12.381Z,3.13
2018-12-23T06:23:40.626Z,3.30
2018-12-23T06:26:08.730Z,4.60
2018-12-23T06:28:37.097Z,3.37
2018-12-23T06:31:05.418Z,3.30
2018-12-23T06:33:33.619Z,3.30
2018-12-23T06:36:01.921Z,3.30
2018-12-23T06:38:30.066Z,3.37
2018-12-23T06:40:58.605Z,3.30
2018-12-23T06:43:26.725Z,4.23
2018-12-23T06:45:54.981Z,3.77
2018-12-23T06:48:23.428Z,2.77
2018-12-23T06:50:51.904Z,3.43
2018-12-23T06:53:20.041Z,4.10
2018-12-23T06:55:48.445Z,2.50
2018-12-23T06:58:16.728Z,3.03
2018-12-23T07:00:45.117Z,3.10
2018-12-23T07:03:13.230Z,3.30
2018-12-23T07:05:41.672Z,3.53
2018-12-23T07:08:10.283Z,3.00
2018-12-23T07:10:38.518Z,3.40
2018-12-23T07:13:06.674Z,3.83
2018-12-23T07:15:34.981Z,3.37
2018-12-23T07:18:03.256Z,3.20
2018-12-23T07:20:31.557Z,3.20
2018-12-23T07:22:59.826Z,3.87
2018-12-23T07:25:28.019Z,4.20
2018-12-23T07:27:57.353Z,5.03
2018-12-23T07:30:25.450Z,3.90
2018-12-23T07:32:54.310Z,3.23
2018-12-23T07:35:23.837Z,3.70
2018-12-23T07:37:53.073Z,3.90
2018-12-23T07:40:21.952Z,4.40
2018-12-23T07:42:50.365Z,4.60
2018-12-23T07:45:18.637Z,3.90
2018-12-23T07:47:46.758Z,4.60
2018-12-23T07:50:15.110Z,4.30
2018-12-23T07:52:43.218Z,4.80
2018-12-23T07:55:11.371Z,5.30
2018-12-23T07:57:40.346Z,8.50
2018-12-23T08:00:08.736Z,5.40
2018-12-23T08:02:37.140Z,37.27
2018-12-23T08:05:05.490Z,6.23
2018-12-23T08:07:36.230Z,5.63
2018-12-23T08:10:04.649Z,5.00
2018-12-23T08:12:33.230Z,5.37
2018-12-23T08:15:44.685Z,6.40
2018-12-23T08:18:25.643Z,5.47
2018-12-23T08:21:06.808Z,5.70
2018-12-23T08:23:47.547Z,5.40
2018-12-23T08:26:28.462Z,5.07
2018-12-23T08:29:09.414Z,5.73
2018-12-23T08:31:50.831Z,5.87
2018-12-23T08:34:19.798Z,5.10
2018-12-23T08:36:49.470Z,4.73
2018-12-23T08:39:18.974Z,5.83
2018-12-23T08:41:48.571Z,4.70
2018-12-23T08:44:18.251Z,5.50
2018-12-23T08:46:48.404Z,5.40
2018-12-23T08:49:17.942Z,6.53
2018-12-23T08:51:47.332Z,6.40
2018-12-23T08:54:16.827Z,5.80
2018-12-23T08:56:46.298Z,3.23
2018-12-23T08:59:15.811Z,6.27
2018-12-23T09:01:45.589Z,5.00
2018-12-23T09:04:14.907Z,4.97
2018-12-23T09:06:44.189Z,5.83
2018-12-23T09:09:14.649Z,7.83
2018-12-23T09:11:44.674Z,6.00
2018-12-23T09:14:17.250Z,5.40
2018-12-23T09:16:47.138Z,5.20
2018-12-23T09:19:16.774Z,4.57
2018-12-23T09:21:46.622Z,4.57
2018-12-23T09:24:16.579Z,5.30
2018-12-23T09:26:46.363Z,4.70
2018-12-23T09:29:15.943Z,6.33
2018-12-23T09:31:45.599Z,4.50
2018-12-23T09:34:15.186Z,4.07
2018-12-23T09:36:48.098Z,4.30
2018-12-23T09:39:17.713Z,4.10
2018-12-23T09:41:47.303Z,4.70
2018-12-23T09:44:16.776Z,5.57
2018-12-23T09:46:46.222Z,5.93
2018-12-23T09:49:15.918Z,5.47
2018-12-23T09:51:46.677Z,5.40
2018-12-23T09:54:16.520Z,4.90
2018-12-23T09:56:46.043Z,4.43
2018-12-23T09:59:15.991Z,5.30
2018-12-23T10:01:45.456Z,4.87
2018-12-23T10:04:14.915Z,4.47
2018-12-23T10:06:44.463Z,4.27
2018-12-23T10:09:14.932Z,5.13
2018-12-23T10:11:44.387Z,5.50
2018-12-23T10:14:15.664Z,4.90
2018-12-23T10:16:47.124Z,4.27
2018-12-23T10:19:16.922Z,6.50
2018-12-23T10:21:46.838Z,5.30
2018-12-23T10:24:16.633Z,4.70
2018-12-23T10:26:46.767Z,5.00
2018-12-23T10:29:16.292Z,5.73
2018-12-23T10:31:46.097Z,5.13
2018-12-23T10:34:15.800Z,4.30
2018-12-23T10:36:45.404Z,4.70
2018-12-23T10:39:15.004Z,5.03
2018-12-23T10:41:44.799Z,4.23
2018-12-23T10:44:14.503Z,5.10
2018-12-23T10:46:44.204Z,5.43
2018-12-23T10:49:14.847Z,4.90
2018-12-23T10:51:44.326Z,5.30
2018-12-23T10:54:13.694Z,6.33
2018-12-23T10:56:42.966Z,5.53
2018-12-23T10:59:12.484Z,5.10
2018-12-23T11:01:41.861Z,5.23
2018-12-23T11:04:11.352Z,4.47
2018-12-23T11:06:40.775Z,4.50
2018-12-23T11:09:10.627Z,5.37
2018-12-23T11:11:40.023Z,4.20
2018-12-23T11:14:09.542Z,4.60
2018-12-23T11:16:39.106Z,11.70
2018-12-23T11:19:08.424Z,5.13
2018-12-23T11:21:38.319Z,4.40
2018-12-23T11:24:07.645Z,4.90
2018-12-23T11:26:37.515Z,5.60
2018-12-23T11:29:07.072Z,4.20
2018-12-23T11:31:36.761Z,5.30
2018-12-23T11:34:06.411Z,3.60
2018-12-23T11:36:35.933Z,4.80
2018-12-23T11:39:07.948Z,5.23
2018-12-23T11:41:37.425Z,4.10
2018-12-23T11:44:07.475Z,4.90
2018-12-23T11:46:36.871Z,4.43
2018-12-23T11:49:06.659Z,5.23
2018-12-23T11:51:36.032Z,4.90
2018-12-23T11:54:05.945Z,5.90
2018-12-23T11:56:36.047Z,5.87
2018-12-23T11:59:05.642Z,4.80
2018-12-23T12:01:35.169Z,4.93
2018-12-23T12:04:04.798Z,4.67
2018-12-23T12:06:34.738Z,5.20
2018-12-23T12:09:07.419Z,7.03
2018-12-23T12:11:37.060Z,5.47
2018-12-23T12:14:06.563Z,5.03
2018-12-23T12:16:35.825Z,5.07
2018-12-23T12:19:05.462Z,4.63
2018-12-23T12:21:34.959Z,5.00
2018-12-23T12:24:04.569Z,5.60
2018-12-23T12:26:34.147Z,6.90
2018-12-23T12:29:04.014Z,5.20
2018-12-23T12:31:33.479Z,4.70
2018-12-23T12:34:03.037Z,6.67
2018-12-23T12:36:32.692Z,5.77
2018-12-23T12:39:02.394Z,6.50
2018-12-23T12:41:31.848Z,5.90
2018-12-23T12:44:01.658Z,6.20
2018-12-23T12:46:32.290Z,6.00
2018-12-23T12:49:01.651Z,5.93
2018-12-23T12:51:31.358Z,5.00
2018-12-23T12:54:00.695Z,6.33
2018-12-23T12:56:30.446Z,5.60
2018-12-23T12:58:59.980Z,5.67
2018-12-23T13:01:29.690Z,8.33
2018-12-23T13:03:59.389Z,6.93
2018-12-23T13:06:29.172Z,5.83
2018-12-23T13:09:00.616Z,5.80
2018-12-23T13:11:30.583Z,6.33
2018-12-23T13:14:00.285Z,5.77
2018-12-23T13:16:29.851Z,7.27
2018-12-23T13:18:59.464Z,7.07
2018-12-23T13:21:28.956Z,6.10
2018-12-23T13:23:58.674Z,7.23
2018-12-23T13:26:27.967Z,7.17
2018-12-23T13:28:58.226Z,7.60
2018-12-23T13:31:28.726Z,8.87
2018-12-23T13:33:59.000Z,6.97
2018-12-23T13:36:30.705Z,7.10
2018-12-23T13:39:08.799Z,7.17
2018-12-23T13:42:22.630Z,8.30
2018-12-23T13:45:19.988Z,7.17
2018-12-23T13:49:03.042Z,5.70
2018-12-23T13:52:08.674Z,5.53
2018-12-23T13:55:30.130Z,6.83
2018-12-23T13:58:48.991Z,4.90
2018-12-23T14:02:00.678Z,4.57
2018-12-23T14:05:03.090Z,4.57
2018-12-23T14:07:51.293Z,6.27
2018-12-23T14:11:00.006Z,10.00
2018-12-23T14:13:31.722Z,4.00
2018-12-23T14:16:01.670Z,3.97
2018-12-23T14:18:34.454Z,3.93
2018-12-23T14:21:04.810Z,5.50
2018-12-23T14:23:34.880Z,5.27
2018-12-23T14:26:05.508Z,8.60
2018-12-23T14:28:35.939Z,13.20
2018-12-23T14:31:07.115Z,9.30
2018-12-23T14:33:37.750Z,9.03
2018-12-23T14:36:07.795Z,12.80
2018-12-23T14:38:39.569Z,5.50
2018-12-23T14:41:09.630Z,2.77
2018-12-23T14:43:40.786Z,6.63
2018-12-23T14:46:10.473Z,2.20
2018-12-23T14:48:42.420Z,2.87
2018-12-23T14:51:12.068Z,2.80
2018-12-23T14:53:41.873Z,2.13
2018-12-23T14:56:11.675Z,2.80
2018-12-23T14:58:42.123Z,2.77
2018-12-23T15:01:13.887Z,3.70
2018-12-23T15:03:43.914Z,4.10
2018-12-23T15:06:16.342Z,5.03
2018-12-23T15:08:45.853Z,10.47
2018-12-23T15:11:15.810Z,8.40
2018-12-23T15:13:45.398Z,15.73
2018-12-23T15:16:16.391Z,24.00
2018-12-23T15:18:46.932Z,259.07
2018-12-23T15:21:16.908Z,196.63
2018-12-23T15:23:46.636Z,328.23
2018-12-23T15:26:16.748Z,182.90
2018-12-23T15:28:46.821Z,96.33
2018-12-23T15:31:16.533Z,29.43
2018-12-23T15:33:50.507Z,70.67
2018-12-23T15:36:22.211Z,83.27
2018-12-23T15:38:52.101Z,24.13
2018-12-23T15:41:21.872Z,12.27
2018-12-23T15:43:51.392Z,287.30
2018-12-23T15:46:21.139Z,71.27
2018-12-23T15:48:50.478Z,67.00
2018-12-23T15:51:21.504Z,189.90
2018-12-23T15:53:51.543Z,79.27
2018-12-23T15:56:21.034Z,47.50
2018-12-23T15:58:50.706Z,103.57
2018-12-23T16:01:20.522Z,33.87
2018-12-23T16:03:52.513Z,17.87
2018-12-23T16:06:22.355Z,18.50
2018-12-23T16:08:54.665Z,13.83
2018-12-23T16:11:24.329Z,22.67
2018-12-23T16:13:54.289Z,6.53
2018-12-23T16:16:23.882Z,10.80
2018-12-23T16:18:53.538Z,8.63
2018-12-23T16:21:24.844Z,6.30
2018-12-23T16:23:54.698Z,7.93
2018-12-23T16:26:23.919Z,8.97
2018-12-23T16:28:54.940Z,7.33
2018-12-23T16:31:24.341Z,7.83
2018-12-23T16:33:53.973Z,8.57
2018-12-23T16:36:23.278Z,10.53
2018-12-23T16:38:53.439Z,9.47
2018-12-23T16:41:23.289Z,17.07
2018-12-23T16:43:55.773Z,22.10
2018-12-23T16:46:27.866Z,26.50
2018-12-23T16:48:58.987Z,12.20
2018-12-23T16:51:28.420Z,15.30
2018-12-23T16:53:57.889Z,12.20
2018-12-23T16:56:27.541Z,11.80
2018-12-23T16:58:57.241Z,12.30
2018-12-23T17:01:29.072Z,0.30
2018-12-23T17:03:58.830Z,0.40
2018-12-23T17:06:28.318Z,0.50
2018-12-23T17:08:58.013Z,0.50
2018-12-23T17:11:27.416Z,0.50
2018-12-23T17:13:56.788Z,0.40
2018-12-23T17:16:26.074Z,0.40
2018-12-23T17:18:55.422Z,0.40
2018-12-23T17:21:24.967Z,0.60
2018-12-23T17:23:54.522Z,0.60
2018-12-23T17:26:23.964Z,0.40
2018-12-23T17:28:53.515Z,0.50
2018-12-23T17:31:22.959Z,0.60
2018-12-23T17:33:52.738Z,0.50
2018-12-23T17:36:22.704Z,0.40
2018-12-23T17:38:51.888Z,0.40
2018-12-23T17:41:21.848Z,2.30
2018-12-23T17:43:51.324Z,0.50
2018-12-23T17:46:20.970Z,0.40
2018-12-23T17:48:50.640Z,0.40
2018-12-23T17:51:20.128Z,0.40
2018-12-23T17:53:49.675Z,0.50
2018-12-23T17:56:19.268Z,0.50
2018-12-23T17:58:48.809Z,1.67
2018-12-23T18:01:18.359Z,0.40
2018-12-23T18:03:48.138Z,0.40
2018-12-23T18:06:17.963Z,0.50
2018-12-23T18:08:47.491Z,0.60
2018-12-23T18:11:18.622Z,0.40
2018-12-23T18:13:50.335Z,0.60
2018-12-23T18:16:23.240Z,0.40
2018-12-23T18:18:52.653Z,0.40
2018-12-23T18:21:23.190Z,0.40
2018-12-23T18:23:52.741Z,0.40
2018-12-23T18:26:22.707Z,0.47
2018-12-23T18:28:52.600Z,0.40
2018-12-23T18:31:22.355Z,0.50
2018-12-23T18:33:52.191Z,0.50
2018-12-23T18:36:21.965Z,1.10
2018-12-23T18:38:51.196Z,0.40
2018-12-23T18:41:20.889Z,0.40
2018-12-23T18:43:50.836Z,0.60
2018-12-23T18:46:20.351Z,0.40
2018-12-23T18:48:52.881Z,0.40
2018-12-23T18:51:22.426Z,0.50
2018-12-23T18:53:52.223Z,0.50
2018-12-23T18:56:29.334Z,0.40
2018-12-23T18:58:59.159Z,0.30
2018-12-23T19:01:30.207Z,0.50
2018-12-23T19:04:00.199Z,0.70
2018-12-23T19:06:29.912Z,0.40
2018-12-23T19:09:27.363Z,0.50
2018-12-23T19:12:34.226Z,0.40
2018-12-23T19:15:33.310Z,0.63
2018-12-23T19:18:47.109Z,0.40
2018-12-23T19:21:40.386Z,0.40
2018-12-23T19:24:38.006Z,0.50
2018-12-23T19:28:03.814Z,0.40
2018-12-23T19:31:12.240Z,0.40
2018-12-23T19:34:33.948Z,0.40
2018-12-23T19:37:33.340Z,0.60
2018-12-23T19:40:31.727Z,0.30
2018-12-23T19:43:38.496Z,0.43
2018-12-23T19:46:53.771Z,0.30
2018-12-23T19:50:00.038Z,0.50
2018-12-23T19:53:05.459Z,0.40
2018-12-23T19:56:04.139Z,0.33
2018-12-23T19:58:57.529Z,0.40
2018-12-23T20:02:05.119Z,1.97
2018-12-23T20:05:12.765Z,0.40
2018-12-23T20:08:31.675Z,0.40
2018-12-23T20:11:40.748Z,0.40
2018-12-23T20:14:43.211Z,0.30
2018-12-23T20:17:57.569Z,0.40
2018-12-23T20:21:02.609Z,0.43
2018-12-23T20:24:02.294Z,0.40
2018-12-23T20:26:58.098Z,0.33
2018-12-23T20:30:01.518Z,0.33
2018-12-23T20:32:42.897Z,0.60
2018-12-23T20:35:36.271Z,0.50
2018-12-23T20:38:44.138Z,0.40
2018-12-23T20:41:58.286Z,0.50
2018-12-23T20:45:02.793Z,0.40
2018-12-23T20:48:10.477Z,0.30
2018-12-23T20:51:03.653Z,0.30
2018-12-23T20:53:56.660Z,3.57
2018-12-23T20:56:56.788Z,0.50
2018-12-23T21:00:22.181Z,0.40
2018-12-23T21:03:35.554Z,0.40
2018-12-23T21:06:50.001Z,0.40
2018-12-23T21:10:01.507Z,0.40
2018-12-23T21:12:56.506Z,0.63
2018-12-23T21:15:59.961Z,0.40
2018-12-23T21:19:14.611Z,0.30
2018-12-23T21:22:22.661Z,0.40
2018-12-23T21:25:19.383Z,0.30
2018-12-23T21:28:25.019Z,0.30
2018-12-23T21:31:38.483Z,0.40
2018-12-23T21:35:13.012Z,0.50
2018-12-23T21:38:29.251Z,0.50
2018-12-23T21:42:01.593Z,0.40
2018-12-23T21:45:14.255Z,0.40
2018-12-23T21:48:30.272Z,0.50
2018-12-23T21:51:35.880Z,0.40
2018-12-23T21:54:58.576Z,0.30
2018-12-23T21:58:00.868Z,0.50
2018-12-23T22:01:13.560Z,0.30
2018-12-23T22:04:24.648Z,0.30
2018-12-23T22:07:25.672Z,0.67
2018-12-23T22:10:51.092Z,0.40
2018-12-23T22:13:26.159Z,0.40
2018-12-23T22:15:56.617Z,0.40
2018-12-23T22:18:27.351Z,0.40
2018-12-23T22:20:57.191Z,0.40
2018-12-23T22:23:27.841Z,0.37
2018-12-23T22:26:01.380Z,0.60
2018-12-23T22:28:31.187Z,0.40
2018-12-23T22:31:00.929Z,0.33
2018-12-23T22:33:32.570Z,0.30
2018-12-23T22:36:03.245Z,0.40
2018-12-23T22:38:33.195Z,0.40
2018-12-23T22:41:10.822Z,0.40
2018-12-23T22:43:40.223Z,0.43
2018-12-23T22:46:09.729Z,0.30
2018-12-23T22:48:45.335Z,0.30
2018-12-23T22:51:15.416Z,0.30
2018-12-23T22:53:46.973Z,0.50
2018-12-23T22:56:16.714Z,0.40
2018-12-23T22:58:46.044Z,0.50
2018-12-23T23:01:15.653Z,0.50
2018-12-23T23:03:45.050Z,0.50
2018-12-23T23:06:14.750Z,0.60
2018-12-23T23:08:44.359Z,0.40
2018-12-23T23:11:14.003Z,0.30
2018-12-23T23:13:44.977Z,0.30
2018-12-23T23:16:14.630Z,0.40
2018-12-23T23:18:44.415Z,0.40
2018-12-23T23:21:13.911Z,0.40
2018-12-23T23:23:43.868Z,0.30
2018-12-23T23:26:13.696Z,0.30
2018-12-23T23:28:43.004Z,0.30
2018-12-23T23:31:12.804Z,0.30
2018-12-23T23:33:42.418Z,0.30
2018-12-23T23:36:11.918Z,0.40
2018-12-23T23:38:41.400Z,0.40
2018-12-23T23:41:11.203Z,0.33
2018-12-23T23:43:40.632Z,0.40
2018-12-23T23:46:10.256Z,0.50
2018-12-23T23:48:39.944Z,0.30
2018-12-23T23:51:09.600Z,0.40
2018-12-23T23:53:39.208Z,0.30
2018-12-23T23:56:08.427Z,0.37
2018-12-23T23:58:38.139Z,0.30
